createdAt,value
2019-04-06T00:02:19.718Z,100696.58
2019-04-06T00:04:47.920Z,100694.11
2019-04-06T00:07:16.151Z,100698.52
2019-04-06T00:09:44.369Z,100692.61
2019-04-06T00:12:13.956Z,100696.07
2019-04-06T00:14:42.164Z,100695.49
2019-04-06T00:17:10.387Z,100702.22
2019-04-06T00:19:38.593Z,100711.48
2019-04-06T00:22:06.811Z,100719.95
2019-04-06T00:24:35.017Z,100719.83
2019-04-06T00:27:03.239Z,100721.00
2019-04-06T00:29:31.446Z,100727.47
2019-04-06T00:32:01.304Z,100748.03
2019-04-06T00:34:29.577Z,100745.81
2019-04-06T00:36:57.734Z,100747.68
2019-04-06T00:39:25.938Z,100742.88
2019-04-06T00:41:54.172Z,100741.03
2019-04-06T00:44:22.376Z,100747.11
2019-04-06T00:46:50.594Z,100746.98
2019-04-06T00:49:18.806Z,100740.88
2019-04-06T00:51:47.977Z,100734.11
2019-04-06T00:54:17.124Z,100733.11
2019-04-06T00:56:45.478Z,100740.89
2019-04-06T00:59:14.148Z,100742.52
2019-04-06T01:01:42.359Z,100744.59
2019-04-06T01:04:10.565Z,100738.42
2019-04-06T01:06:38.788Z,100732.41
2019-04-06T01:09:08.802Z,100740.23
2019-04-06T01:11:37.017Z,100751.41
2019-04-06T01:14:05.248Z,100753.78
2019-04-06T01:16:33.458Z,100750.19
2019-04-06T01:19:01.680Z,100757.52
2019-04-06T01:21:29.882Z,100758.08
2019-04-06T01:23:58.154Z,100752.77
2019-04-06T01:26:26.318Z,100757.52
2019-04-06T01:28:54.535Z,100761.97
2019-04-06T01:31:22.754Z,100759.09
2019-04-06T01:33:51.061Z,100772.46
2019-04-06T01:36:19.374Z,100774.23
2019-04-06T01:38:47.569Z,100766.69
2019-04-06T01:41:15.783Z,100772.91
2019-04-06T01:43:44.557Z,100768.24
2019-04-06T01:46:12.789Z,100768.09
2019-04-06T01:48:40.999Z,100770.67
2019-04-06T01:51:09.217Z,100768.95
2019-04-06T01:53:37.454Z,100762.63
2019-04-06T01:56:05.667Z,100772.69
2019-04-06T01:58:33.875Z,100774.71
2019-04-06T02:01:12.603Z,100769.76
2019-04-06T02:03:41.216Z,100764.30
2019-04-06T02:06:09.513Z,100763.51
2019-04-06T02:08:37.720Z,100762.09
2019-04-06T02:11:05.929Z,100764.03
2019-04-06T02:13:34.184Z,100770.14
2019-04-06T02:16:02.362Z,100765.03
2019-04-06T02:18:30.572Z,100767.62
2019-04-06T02:20:58.805Z,100762.11
2019-04-06T02:23:27.013Z,100763.63
2019-04-06T02:25:55.245Z,100755.89
2019-04-06T02:28:24.924Z,100752.01
2019-04-06T02:31:12.791Z,100760.76
2019-04-06T02:33:42.726Z,100758.69
2019-04-06T02:36:18.572Z,100762.00
2019-04-06T02:38:52.396Z,100762.20
2019-04-06T02:41:37.372Z,100760.98
2019-04-06T02:44:05.580Z,100760.00
2019-04-06T02:46:33.787Z,100758.33
2019-04-06T02:49:02.004Z,100752.81
2019-04-06T02:51:30.217Z,100746.55
2019-04-06T02:53:58.434Z,100745.41
2019-04-06T02:56:26.643Z,100741.94
2019-04-06T02:58:54.867Z,100745.67
2019-04-06T03:01:23.115Z,100742.02
2019-04-06T03:03:51.321Z,100741.59
2019-04-06T03:06:19.540Z,100746.44
2019-04-06T03:08:47.749Z,100738.84
2019-04-06T03:11:15.991Z,100744.79
2019-04-06T03:13:44.198Z,100743.36
2019-04-06T03:16:12.421Z,100738.63
2019-04-06T03:18:40.634Z,100733.46
2019-04-06T03:21:08.846Z,100731.56
2019-04-06T03:23:49.584Z,100734.16
2019-04-06T03:26:06.990Z,100743.08
2019-04-06T03:28:35.662Z,100738.77
2019-04-06T03:31:03.896Z,100739.48
2019-04-06T03:33:32.330Z,100744.94
2019-04-06T03:36:00.581Z,100747.77
2019-04-06T03:38:28.809Z,100748.77
2019-04-06T03:40:57.021Z,100746.41
2019-04-06T03:43:25.228Z,100743.61
2019-04-06T03:45:53.450Z,100739.84
2019-04-06T03:48:21.666Z,100741.27
2019-04-06T03:50:50.062Z,100736.71
2019-04-06T03:53:18.295Z,100731.41
2019-04-06T03:55:46.491Z,100732.05
2019-04-06T03:58:14.703Z,100731.02
2019-04-06T04:00:42.967Z,100731.27
2019-04-06T04:03:11.451Z,100729.83
2019-04-06T04:05:39.677Z,100732.11
2019-04-06T04:08:07.920Z,100735.77
2019-04-06T04:10:36.859Z,100733.62
2019-04-06T04:13:05.614Z,100736.24
2019-04-06T04:15:33.823Z,100738.47
2019-04-06T04:18:02.074Z,100737.72
2019-04-06T04:20:30.249Z,100731.55
2019-04-06T04:22:58.691Z,100725.89
2019-04-06T04:25:26.858Z,100721.87
2019-04-06T04:27:55.083Z,100716.92
2019-04-06T04:30:32.519Z,100722.48
2019-04-06T04:32:53.209Z,100728.39
2019-04-06T04:35:21.588Z,100723.59
2019-04-06T04:37:49.810Z,100722.72
2019-04-06T04:40:18.017Z,100726.23
2019-04-06T04:42:46.242Z,100723.86
2019-04-06T04:45:14.641Z,100730.66
2019-04-06T04:47:42.855Z,100728.56
2019-04-06T04:50:11.063Z,100733.11
2019-04-06T04:52:39.285Z,100732.83
2019-04-06T04:55:07.496Z,100736.63
2019-04-06T04:57:40.775Z,100743.52
2019-04-06T05:00:06.344Z,100738.19
2019-04-06T05:02:34.631Z,100737.90
2019-04-06T05:05:02.798Z,100739.77
2019-04-06T05:07:31.004Z,100745.06
2019-04-06T05:09:59.223Z,100744.89
2019-04-06T05:12:27.425Z,100741.31
2019-04-06T05:15:04.154Z,100740.20
2019-04-06T05:17:32.691Z,100739.34
2019-04-06T05:20:00.915Z,100741.34
2019-04-06T05:22:29.110Z,100745.06
2019-04-06T05:24:57.332Z,100739.27
2019-04-06T05:27:25.527Z,100742.27
2019-04-06T05:29:53.725Z,100737.11
2019-04-06T05:32:21.944Z,100743.80
2019-04-06T05:34:50.253Z,100750.60
2019-04-06T05:37:18.452Z,100750.96
2019-04-06T05:39:46.648Z,100755.59
2019-04-06T05:42:14.853Z,100760.77
2019-04-06T05:44:43.070Z,100763.06
2019-04-06T05:47:11.287Z,100762.55
2019-04-06T05:49:39.649Z,100762.28
2019-04-06T05:52:07.798Z,100770.74
2019-04-06T05:54:36.033Z,100768.94
2019-04-06T05:57:04.677Z,100770.16
2019-04-06T05:59:32.901Z,100779.20
2019-04-06T06:02:01.102Z,100779.70
2019-04-06T06:04:29.330Z,100771.70
2019-04-06T06:06:57.538Z,100786.91
2019-04-06T06:09:25.803Z,100788.92
2019-04-06T06:11:55.632Z,100782.14
2019-04-06T06:14:24.031Z,100788.05
2019-04-06T06:16:52.278Z,100783.84
2019-04-06T06:19:20.597Z,100786.12
2019-04-06T06:21:48.812Z,100780.96
2019-04-06T06:24:17.012Z,100771.75
2019-04-06T06:26:45.504Z,100774.12
2019-04-06T06:29:13.702Z,100775.19
2019-04-06T06:31:41.911Z,100774.97
2019-04-06T06:34:10.130Z,100778.17
2019-04-06T06:36:38.333Z,100775.95
2019-04-06T06:39:07.598Z,100777.09
2019-04-06T06:41:35.807Z,100770.33
2019-04-06T06:44:04.026Z,100767.32
2019-04-06T06:46:32.276Z,100766.41
2019-04-06T06:49:00.461Z,100759.69
2019-04-06T06:51:29.652Z,100759.47
2019-04-06T06:53:57.928Z,100756.80
2019-04-06T06:56:26.149Z,100759.47
2019-04-06T06:58:55.741Z,100760.08
2019-04-06T07:01:24.141Z,100760.35
2019-04-06T07:03:52.274Z,100763.04
2019-04-06T07:06:20.490Z,100774.07
2019-04-06T07:08:48.702Z,100768.97
2019-04-06T07:11:16.998Z,100769.06
2019-04-06T07:13:45.132Z,100771.06
2019-04-06T07:16:13.349Z,100775.08
2019-04-06T07:18:41.567Z,100778.86
2019-04-06T07:21:09.762Z,100775.84
2019-04-06T07:23:37.999Z,100779.52
2019-04-06T07:26:06.219Z,100780.98
2019-04-06T07:28:38.425Z,100784.31
2019-04-06T07:31:04.621Z,100775.81
2019-04-06T07:33:32.854Z,100788.54
2019-04-06T07:36:01.071Z,100784.12
2019-04-06T07:38:29.287Z,100780.41
2019-04-06T07:40:57.507Z,100781.43
2019-04-06T07:43:25.808Z,100775.44
2019-04-06T07:45:54.589Z,100768.41
2019-04-06T07:48:22.801Z,100770.50
2019-04-06T07:50:51.005Z,100771.73
2019-04-06T07:53:19.354Z,100780.84
2019-04-06T07:55:47.708Z,100774.30
2019-04-06T07:58:16.096Z,100780.13
2019-04-06T08:00:44.577Z,100776.53
2019-04-06T08:03:12.784Z,100776.03
2019-04-06T08:05:41.049Z,100773.66
2019-04-06T08:08:09.210Z,100765.44
2019-04-06T08:10:37.433Z,100759.25
2019-04-06T08:13:05.646Z,100765.08
2019-04-06T08:15:33.867Z,100767.48
2019-04-06T08:18:02.535Z,100769.54
2019-04-06T08:20:30.753Z,100763.36
2019-04-06T08:22:58.960Z,100765.44
2019-04-06T08:25:27.190Z,100762.35
2019-04-06T08:27:55.567Z,100767.83
2019-04-06T08:30:24.167Z,100764.02
2019-04-06T08:32:52.324Z,100769.80
2019-04-06T08:35:26.030Z,100767.70
2019-04-06T08:37:50.471Z,100764.94
2019-04-06T08:40:18.721Z,100769.03
2019-04-06T08:42:47.154Z,100774.92
2019-04-06T08:45:15.391Z,100764.91
2019-04-06T08:47:43.595Z,100762.29
2019-04-06T08:50:11.817Z,100770.30
2019-04-06T08:52:40.018Z,100769.75
2019-04-06T08:55:08.615Z,100768.34
2019-04-06T08:57:36.907Z,100768.83
2019-04-06T09:00:06.839Z,100767.94
2019-04-06T09:02:35.197Z,100765.52
2019-04-06T09:05:04.584Z,100770.87
2019-04-06T09:07:33.256Z,100769.76
2019-04-06T09:10:01.497Z,100760.73
2019-04-06T09:12:29.697Z,100761.69
2019-04-06T09:14:57.940Z,100762.59
2019-04-06T09:17:26.122Z,100765.56
2019-04-06T09:19:54.333Z,100763.80
2019-04-06T09:22:22.754Z,100765.45
2019-04-06T09:24:50.929Z,100765.86
2019-04-06T09:27:19.150Z,100761.00
2019-04-06T09:29:47.534Z,100752.61
2019-04-06T09:32:15.756Z,100760.28
2019-04-06T09:34:44.290Z,100752.28
2019-04-06T09:37:12.452Z,100753.97
2019-04-06T09:39:40.662Z,100743.92
2019-04-06T09:42:08.878Z,100742.11
2019-04-06T09:44:44.579Z,100740.15
2019-04-06T09:47:23.390Z,100737.36
2019-04-06T09:49:59.979Z,100749.25
2019-04-06T09:52:45.432Z,100744.98
2019-04-06T09:55:15.353Z,100752.44
2019-04-06T09:57:54.445Z,100747.31
2019-04-06T10:00:30.134Z,100753.88
2019-04-06T10:03:15.880Z,100734.12
2019-04-06T10:05:54.146Z,100738.20
2019-04-06T10:08:26.756Z,100735.30
2019-04-06T10:10:59.618Z,100734.48
2019-04-06T10:13:45.697Z,100744.38
2019-04-06T10:16:15.740Z,100749.13
2019-04-06T10:18:54.580Z,100744.52
2019-04-06T10:21:27.568Z,100743.40
2019-04-06T10:24:15.202Z,100739.03
2019-04-06T10:26:48.371Z,100732.16
2019-04-06T10:29:23.930Z,100731.91
2019-04-06T10:32:10.772Z,100738.95
2019-04-06T10:34:52.388Z,100749.50
2019-04-06T10:37:27.716Z,100750.86
2019-04-06T10:40:13.726Z,100748.21
2019-04-06T10:42:48.981Z,100749.69
2019-04-06T10:45:18.828Z,100753.09
2019-04-06T10:47:54.791Z,100758.25
2019-04-06T10:50:27.225Z,100763.70
2019-04-06T10:53:09.523Z,100753.86
2019-04-06T10:55:39.384Z,100760.23
2019-04-06T10:58:26.173Z,100759.31
2019-04-06T11:01:13.877Z,100764.78
2019-04-06T11:03:46.537Z,100749.95
2019-04-06T11:06:28.228Z,100753.03
2019-04-06T11:09:03.792Z,100750.91
2019-04-06T11:11:33.643Z,100744.34
2019-04-06T11:14:03.492Z,100746.91
2019-04-06T11:16:51.426Z,100746.64
2019-04-06T11:19:37.547Z,100748.36
2019-04-06T11:22:24.576Z,100740.63
2019-04-06T11:24:59.546Z,100745.00
2019-04-06T11:27:29.615Z,100739.25
2019-04-06T11:30:11.287Z,100745.43
2019-04-06T11:32:40.272Z,100745.01
2019-04-06T11:35:12.628Z,100742.20
2019-04-06T11:37:42.430Z,100741.46
2019-04-06T11:40:23.989Z,100734.66
2019-04-06T11:42:56.537Z,100738.06
2019-04-06T11:45:26.404Z,100741.36
2019-04-06T11:47:56.622Z,100731.03
2019-04-06T11:50:28.948Z,100732.09
2019-04-06T11:53:02.476Z,100729.59
2019-04-06T11:55:38.658Z,100730.77
2019-04-06T11:58:17.575Z,100726.81
2019-04-06T12:00:49.901Z,100730.56
2019-04-06T12:03:19.746Z,100728.31
2019-04-06T12:06:07.466Z,100726.40
2019-04-06T12:08:39.959Z,100719.23
2019-04-06T12:11:24.743Z,100721.74
2019-04-06T12:13:57.287Z,100718.45
2019-04-06T12:16:45.765Z,100716.17
2019-04-06T12:19:24.421Z,100718.20
2019-04-06T12:21:54.291Z,100714.89
2019-04-06T12:24:30.113Z,100717.34
2019-04-06T12:27:05.700Z,100717.03
2019-04-06T12:29:35.549Z,100714.36
2019-04-06T12:32:20.124Z,100709.95
2019-04-06T12:34:49.937Z,100703.23
2019-04-06T12:37:25.514Z,100704.61
2019-04-06T12:40:11.787Z,100708.46
2019-04-06T12:42:44.412Z,100706.77
2019-04-06T12:45:14.261Z,100700.55
2019-04-06T12:48:02.194Z,100695.97
2019-04-06T12:50:40.878Z,100696.20
2019-04-06T12:53:16.408Z,100690.67
2019-04-06T12:56:02.469Z,100693.03
2019-04-06T12:58:35.346Z,100689.84
2019-04-06T13:01:22.336Z,100683.66
2019-04-06T13:03:55.264Z,100689.41
2019-04-06T13:06:25.286Z,100691.72
2019-04-06T13:08:57.790Z,100703.05
2019-04-06T13:11:43.520Z,100697.50
2019-04-06T13:14:16.269Z,100699.09
2019-04-06T13:16:58.023Z,100695.88
2019-04-06T13:19:39.579Z,100694.45
2019-04-06T13:22:09.666Z,100693.92
2019-04-06T13:24:57.383Z,100698.93
2019-04-06T13:27:39.084Z,100689.66
2019-04-06T13:30:25.176Z,100687.89
2019-04-06T13:33:01.030Z,100695.90
2019-04-06T13:35:31.127Z,100687.94
2019-04-06T13:38:12.821Z,100697.42
2019-04-06T13:40:42.733Z,100692.62
2019-04-06T13:43:17.994Z,100694.75
2019-04-06T13:45:47.876Z,100694.16
2019-04-06T13:48:33.733Z,100692.78
2019-04-06T13:51:15.199Z,100693.03
2019-04-06T13:53:54.391Z,100694.30
2019-04-06T13:56:24.261Z,100684.89
2019-04-06T13:58:56.799Z,100694.47
2019-04-06T14:01:27.221Z,100692.72
2019-04-06T14:04:02.579Z,100691.44
2019-04-06T14:06:34.908Z,100691.16
2019-04-06T14:09:13.574Z,100701.86
2019-04-06T14:11:46.264Z,100704.39
2019-04-06T14:14:32.152Z,100706.75
2019-04-06T14:17:13.876Z,100703.20
2019-04-06T14:20:01.604Z,100703.31
2019-04-06T14:22:43.216Z,100703.31
2019-04-06T14:25:15.930Z,100697.02
2019-04-06T14:27:54.568Z,100696.48
2019-04-06T14:30:39.578Z,100691.82
2019-04-06T14:33:09.423Z,100694.75
2019-04-06T14:35:54.946Z,100695.64
2019-04-06T14:38:34.935Z,100693.90
2019-04-06T14:41:07.750Z,100693.05
2019-04-06T14:43:43.514Z,100692.14
2019-04-06T14:46:17.461Z,100694.09
2019-04-06T14:48:50.004Z,100690.27
2019-04-06T14:51:36.091Z,100686.36
2019-04-06T14:54:11.663Z,100686.25
2019-04-06T14:56:44.846Z,100679.02
2019-04-06T14:59:17.461Z,100681.36
2019-04-06T15:02:03.319Z,100683.48
2019-04-06T15:04:48.200Z,100680.08
2019-04-06T15:07:23.780Z,100676.88
2019-04-06T15:09:54.369Z,100679.05
2019-04-06T15:12:27.026Z,100670.84
2019-04-06T15:15:02.387Z,100678.88
2019-04-06T15:17:38.234Z,100675.46
2019-04-06T15:20:23.874Z,100683.02
2019-04-06T15:23:10.298Z,100675.35
2019-04-06T15:25:51.883Z,100670.77
2019-04-06T15:28:21.823Z,100677.80
2019-04-06T15:30:57.718Z,100670.88
2019-04-06T15:33:43.750Z,100668.75
2019-04-06T15:36:13.619Z,100673.15
2019-04-06T15:38:49.581Z,100671.44
2019-04-06T15:41:19.467Z,100667.70
2019-04-06T15:44:05.226Z,100668.98
2019-04-06T15:46:51.273Z,100668.77
2019-04-06T15:49:21.135Z,100667.28
2019-04-06T15:51:50.985Z,100672.29
2019-04-06T15:54:29.881Z,100672.53
2019-04-06T15:56:59.795Z,100666.24
2019-04-06T15:59:30.299Z,100667.73
2019-04-06T16:02:03.221Z,100667.39
2019-04-06T16:04:49.683Z,100669.81
2019-04-06T16:07:30.153Z,100669.60
2019-04-06T16:09:51.351Z,100670.74
2019-04-06T16:12:21.209Z,100674.90
2019-04-06T16:14:54.049Z,100680.22
2019-04-06T16:17:24.199Z,100677.27
2019-04-06T16:19:56.899Z,100674.90
2019-04-06T16:22:29.302Z,100679.69
2019-04-06T16:25:04.832Z,100676.03
2019-04-06T16:27:50.821Z,100679.58
2019-04-06T16:30:23.144Z,100679.55
2019-04-06T16:32:53.069Z,100675.45
2019-04-06T16:35:38.788Z,100683.93
2019-04-06T16:38:24.843Z,100681.70
2019-04-06T16:40:54.695Z,100686.96
2019-04-06T16:43:27.449Z,100677.34
2019-04-06T16:45:57.296Z,100678.50
2019-04-06T16:48:39.066Z,100683.07
2019-04-06T16:51:17.718Z,100683.55
2019-04-06T16:53:59.139Z,100684.77
2019-04-06T16:56:28.993Z,100685.66
2019-04-06T16:58:58.855Z,100691.19
2019-04-06T17:01:34.508Z,100690.55
2019-04-06T17:04:19.529Z,100695.89
2019-04-06T17:06:49.387Z,100698.25
2019-04-06T17:09:25.141Z,100688.01
2019-04-06T17:12:03.933Z,100696.93
2019-04-06T17:14:43.653Z,100700.12
2019-04-06T17:17:24.873Z,100697.89
2019-04-06T17:19:57.673Z,100701.63
2019-04-06T17:22:30.472Z,100705.26
2019-04-06T17:25:16.651Z,100699.44
2019-04-06T17:27:52.558Z,100704.67
2019-04-06T17:30:25.126Z,100701.95
2019-04-06T17:33:10.864Z,100700.72
2019-04-06T17:35:40.715Z,100700.98
2019-04-06T17:38:10.586Z,100710.26
2019-04-06T17:40:46.118Z,100712.30
2019-04-06T17:43:30.733Z,100710.53
2019-04-06T17:46:03.481Z,100713.20
2019-04-06T17:48:33.329Z,100711.78
2019-04-06T17:51:19.123Z,100713.26
2019-04-06T17:53:55.224Z,100709.71
2019-04-06T17:56:27.795Z,100717.19
2019-04-06T17:59:03.294Z,100720.03
2019-04-06T18:01:34.231Z,100724.74
2019-04-06T18:04:22.153Z,100717.72
2019-04-06T18:06:52.324Z,100723.94
2019-04-06T18:09:31.607Z,100728.13
2019-04-06T18:12:10.338Z,100735.23
2019-04-06T18:14:38.563Z,100731.70
2019-04-06T18:17:06.837Z,100735.54
2019-04-06T18:19:35.071Z,100741.75
2019-04-06T18:22:04.109Z,100742.48
2019-04-06T18:24:32.667Z,100745.27
2019-04-06T18:27:00.878Z,100747.38
2019-04-06T18:29:29.077Z,100745.89
2019-04-06T18:32:13.993Z,100754.32
2019-04-06T18:34:42.243Z,100757.78
2019-04-06T18:37:14.689Z,100755.41
2019-04-06T18:39:42.897Z,100761.61
2019-04-06T18:42:11.099Z,100753.25
2019-04-06T18:44:40.070Z,100760.64
2019-04-06T18:47:08.599Z,100763.73
2019-04-06T18:49:36.803Z,100763.20
2019-04-06T18:52:05.152Z,100762.67
2019-04-06T18:54:33.305Z,100763.38
2019-04-06T18:57:01.515Z,100766.11
2019-04-06T18:59:29.739Z,100760.45
2019-04-06T19:01:58.862Z,100759.59
2019-04-06T19:04:27.461Z,100760.61
2019-04-06T19:06:55.732Z,100761.98
2019-04-06T19:09:25.425Z,100760.45
2019-04-06T19:11:56.671Z,100761.48
2019-04-06T19:14:23.851Z,100768.16
2019-04-06T19:16:52.434Z,100765.20
2019-04-06T19:19:20.664Z,100763.32
2019-04-06T19:21:49.034Z,100764.32
2019-04-06T19:24:17.251Z,100763.98
2019-04-06T19:26:46.052Z,100759.52
2019-04-06T19:29:14.251Z,100762.58
2019-04-06T19:31:42.465Z,100772.69
2019-04-06T19:34:10.682Z,100768.02
2019-04-06T19:36:38.899Z,100766.78
2019-04-06T19:39:11.175Z,100767.97
2019-04-06T19:41:39.392Z,100767.28
2019-04-06T19:44:08.025Z,100776.03
2019-04-06T19:46:36.301Z,100770.20
2019-04-06T19:49:04.475Z,100772.94
2019-04-06T19:51:33.145Z,100768.63
2019-04-06T19:54:04.359Z,100775.84
2019-04-06T19:56:31.303Z,100775.45
2019-04-06T19:58:59.631Z,100777.16
2019-04-06T20:01:27.811Z,100776.43
2019-04-06T20:03:56.035Z,100771.75
2019-04-06T20:06:24.245Z,100776.02
2019-04-06T20:08:52.851Z,100779.23
2019-04-06T20:11:21.069Z,100773.85
2019-04-06T20:13:49.399Z,100771.81
2019-04-06T20:16:17.579Z,100776.26
2019-04-06T20:18:45.781Z,100774.15
2019-04-06T20:21:14.274Z,100773.42
2019-04-06T20:23:42.950Z,100768.80
2019-04-06T20:26:11.548Z,100769.59
2019-04-06T20:28:41.044Z,100769.77
2019-04-06T20:31:09.304Z,100770.78
2019-04-06T20:33:46.788Z,100766.52
2019-04-06T20:36:07.427Z,100778.42
2019-04-06T20:38:35.741Z,100773.70
2019-04-06T20:41:04.302Z,100774.36
2019-04-06T20:43:33.019Z,100773.23
2019-04-06T20:46:01.195Z,100773.05
2019-04-06T20:48:29.447Z,100778.55
2019-04-06T20:50:57.619Z,100768.94
2019-04-06T20:53:25.835Z,100768.19
2019-04-06T20:55:54.234Z,100767.14
2019-04-06T20:58:22.421Z,100771.57
2019-04-06T21:00:51.203Z,100770.47
2019-04-06T21:03:19.871Z,100767.56
2019-04-06T21:05:48.102Z,100768.08
2019-04-06T21:08:17.914Z,100772.18
2019-04-06T21:10:46.120Z,100771.16
2019-04-06T21:13:14.424Z,100770.81
2019-04-06T21:15:43.055Z,100770.47
2019-04-06T21:18:12.138Z,100771.48
2019-04-06T21:20:40.368Z,100769.01
2019-04-06T21:23:08.741Z,100774.12
2019-04-06T21:25:37.470Z,100774.80
2019-04-06T21:28:05.620Z,100778.71
2019-04-06T21:30:33.829Z,100777.76
2019-04-06T21:33:02.028Z,100776.39
2019-04-06T21:35:31.033Z,100780.97
2019-04-06T21:38:00.016Z,100775.95
2019-04-06T21:40:28.223Z,100775.31
2019-04-06T21:42:56.694Z,100773.56
2019-04-06T21:45:25.124Z,100774.70
2019-04-06T21:47:53.280Z,100776.78
2019-04-06T21:50:22.773Z,100774.65
2019-04-06T21:52:53.054Z,100774.17
2019-04-06T21:55:21.869Z,100768.48
2019-04-06T21:57:50.054Z,100762.63
2019-04-06T22:00:25.623Z,100770.13
2019-04-06T22:02:53.827Z,100762.02
2019-04-06T22:05:22.029Z,100764.75
2019-04-06T22:07:53.578Z,100758.77
2019-04-06T22:10:20.805Z,100757.00
2019-04-06T22:12:50.725Z,100753.38
2019-04-06T22:15:19.243Z,100756.70
2019-04-06T22:17:47.779Z,100747.09
2019-04-06T22:20:15.979Z,100746.05
2019-04-06T22:22:44.297Z,100749.21
2019-04-06T22:25:12.499Z,100754.44
2019-04-06T22:27:40.691Z,100760.02
2019-04-06T22:30:09.974Z,100754.84
2019-04-06T22:32:38.179Z,100759.95
2019-04-06T22:35:07.347Z,100750.69
2019-04-06T22:37:35.976Z,100750.73
2019-04-06T22:40:05.551Z,100749.68
2019-04-06T22:42:34.256Z,100744.41
2019-04-06T22:45:02.670Z,100738.95
2019-04-06T22:47:31.370Z,100732.86
2019-04-06T22:49:59.535Z,100738.21
2019-04-06T22:52:27.746Z,100739.11
2019-04-06T22:54:55.956Z,100741.52
2019-04-06T22:57:25.078Z,100742.33
2019-04-06T22:59:53.289Z,100746.50
2019-04-06T23:02:23.728Z,100740.64
2019-04-06T23:04:53.674Z,100747.46
2019-04-06T23:07:23.753Z,100742.51
2019-04-06T23:09:52.108Z,100736.26
2019-04-06T23:12:21.179Z,100736.36
2019-04-06T23:14:49.889Z,100731.28
2019-04-06T23:17:18.071Z,100731.65
2019-04-06T23:19:46.899Z,100724.52
2019-04-06T23:22:15.066Z,100728.47
2019-04-06T23:24:43.277Z,100734.13
2019-04-06T23:27:11.479Z,100734.23
2019-04-06T23:29:40.273Z,100734.02
2019-04-06T23:32:08.951Z,100735.64
2019-04-06T23:34:37.171Z,100729.78
2019-04-06T23:37:06.098Z,100731.44
2019-04-06T23:39:34.445Z,100735.53
2019-04-06T23:42:03.526Z,100732.35
2019-04-06T23:44:31.829Z,100737.75
2019-04-06T23:47:00.446Z,100735.87
2019-04-06T23:49:29.154Z,100736.23
2019-04-06T23:51:57.764Z,100738.55
2019-04-06T23:54:26.372Z,100738.91
2019-04-06T23:56:54.575Z,100741.96
2019-04-06T23:59:23.319Z,100746.70
